Airfield :







YOU CAN JOIN US ON...

 
LOGIN :

Register | Disclaimer

   EN    FR    IT 

 









Legend :    VFR   Marginal VFR   IFR   Intensive IFR   Very Intensive IFR
Visi :
Ceiling :
>= 8 km
>= 3000ft
5 to 8 km
1000 to 3000 ft
1500m to 5 km
500 to 1000 ft
800 to 1500m
200 to 500 ft
< 800m
< 200 ft
Symbols :   Thunderstorms  Fog  Heavy snow  Heavy precipitations  Wind > 20 kt






- Airport Elevation : 118 ft
- IATA code : YUL


CYUL - Montréal - Pierre-Elliott-Trudeau Int.

CURRENT METAR :
  • 201000Z 35004KT 15SM SCT060 M15/M20 A3041 RMK SC3 SLP302

EXPIRED METARs :
  • 200900Z 34005KT 15SM BKN058 M14/M20 A3041 RMK SC5 SLP301

TAF TAF CYUL
Valid from the 20 at 09:00 until the 21 at 06:00 UTC


200838Z 2009/2106 29006KT P6SM BKN050
BECMG 2014/2016 27012G22KT
FM202300 27010KT P6SM FEW040
FM210300 25005KT P6SM SKC RMK NXT FCST BY 201200Z
ATIS : ENG : +1 514-633-3037 FRA : +1 514-633-3034



MET'MAP, your aeronautical weather chart ! - Copyright ORBIFLY December 2007 - Disclaimer

ORBIFLY MET'MAP TEAM :

Programming & Development : Alexandra Zaïnal
Concept & original design : Baudouin d'Aumeries
Assistance for programming : Marc-Olivier Méhu
Technical & hardware support : Manuel Goepfert

Contact : metmap@orbifly.com




SOURCES & CREDITS :

   NOAA